Ambleve, Belgium
Current Conditions -  °F | °C
As of 7:05 PM on Thursday 18 Dec 2014 (Local Time) from ETAD Reporting Station
Light Rain Light Rain  
Wind Chill: 11°   Ceiling: 1000
Heat Index: 11°   Visibility: 6mi
Dew Point: 10°   Wind: 17mph
Humidity: 94%   Direction: 240°WSW
Pressure: 30.02"   Gusts: 25mph
Location:  50.35°N, 6.17°E
Report Text: ETAD 181805Z 24015G22KT 9999 -RA BKN010 OVC015 11/10 A3002 RMK AO2A BKN V OVC
Loading
Personal Weather Stations






























Interactive Weather Map New forecast layout! Learn more

10-Day Weather Forecast

Advertisements
Track Severe Weather on mobile